createdAt,value
2023-03-26T00:00:13.512Z,100.00
2023-03-26T00:02:16.926Z,100.00
2023-03-26T00:04:21.864Z,100.00
2023-03-26T00:06:27.262Z,100.00
2023-03-26T00:08:30.473Z,100.00
2023-03-26T00:10:33.255Z,100.00
2023-03-26T00:12:36.368Z,100.00
2023-03-26T00:14:41.581Z,100.00
2023-03-26T00:16:44.662Z,100.00
2023-03-26T00:18:48.980Z,100.00
2023-03-26T00:20:51.863Z,100.00
2023-03-26T00:22:55.286Z,100.00
2023-03-26T00:24:59.385Z,100.00
2023-03-26T00:27:02.031Z,100.00
2023-03-26T00:29:06.907Z,100.00
2023-03-26T00:31:13.697Z,100.00
2023-03-26T00:33:20.036Z,100.00
2023-03-26T00:35:24.012Z,100.00
2023-03-26T00:37:26.871Z,100.00
2023-03-26T00:39:33.712Z,100.00
2023-03-26T00:41:37.286Z,100.00
2023-03-26T00:43:39.987Z,100.00
2023-03-26T00:45:42.719Z,100.00
2023-03-26T00:47:45.462Z,100.00
2023-03-26T00:49:48.886Z,100.00
2023-03-26T00:51:51.509Z,100.00
2023-03-26T00:53:54.112Z,100.00
2023-03-26T00:56:00.446Z,100.00
2023-03-26T08:59:38.155Z,70.04
2023-03-26T09:02:08.884Z,70.04
2023-03-26T09:04:41.316Z,70.77
2023-03-26T09:07:24.113Z,69.79
2023-03-26T09:09:55.501Z,68.21
2023-03-26T09:11:58.066Z,66.90
2023-03-26T09:14:20.706Z,66.42
2023-03-26T09:17:00.465Z,64.37
2023-03-26T09:19:15.496Z,63.37
2023-03-26T09:21:33.023Z,63.31
2023-03-26T09:23:35.883Z,62.81
2023-03-26T09:25:42.932Z,62.03
2023-03-26T09:28:06.880Z,62.09
2023-03-26T09:30:15.699Z,61.36
2023-03-26T09:32:24.676Z,60.49
2023-03-26T09:34:36.443Z,60.32
2023-03-26T09:37:05.886Z,59.98
2023-03-26T09:39:10.044Z,59.69
2023-03-26T09:41:44.228Z,59.53
2023-03-26T09:43:49.596Z,59.47
2023-03-26T09:45:55.478Z,59.76
2023-03-26T09:48:25.503Z,58.69
2023-03-26T09:51:05.277Z,58.86
2023-03-26T09:53:14.400Z,58.89
2023-03-26T09:55:35.010Z,58.94
2023-03-26T09:57:58.472Z,59.14
2023-03-26T10:00:15.874Z,59.43
2023-03-26T10:02:47.958Z,58.57
2023-03-26T10:05:24.799Z,57.38
2023-03-26T10:07:56.065Z,57.12
2023-03-26T10:10:11.694Z,56.53
2023-03-26T10:12:50.097Z,56.85
2023-03-26T10:14:52.728Z,56.66
2023-03-26T10:16:59.505Z,56.46
2023-03-26T10:19:07.919Z,56.42
2023-03-26T10:21:17.675Z,55.83
2023-03-26T10:23:49.738Z,55.53
2023-03-26T10:25:58.073Z,56.17
2023-03-26T10:28:18.355Z,56.36
2023-03-26T10:30:39.923Z,57.86
2023-03-26T10:33:17.900Z,60.20
2023-03-26T10:35:37.341Z,64.82
2023-03-26T10:37:58.160Z,78.41
2023-03-26T10:40:10.232Z,94.92
2023-03-26T10:42:16.814Z,100.00
2023-03-26T10:44:43.614Z,100.00
2023-03-26T10:47:18.140Z,100.00
2023-03-26T10:49:53.800Z,100.00
2023-03-26T10:51:59.371Z,100.00
2023-03-26T10:54:34.139Z,100.00
2023-03-26T10:56:49.461Z,98.04
2023-03-26T10:58:54.025Z,91.92
2023-03-26T11:01:13.771Z,88.51
2023-03-26T11:04:08.066Z,78.53
2023-03-26T11:06:45.720Z,77.81
2023-03-26T11:09:33.225Z,85.25
2023-03-26T11:11:45.490Z,83.28
2023-03-26T11:14:03.590Z,83.08
2023-03-26T11:16:24.766Z,79.07
2023-03-26T11:18:47.149Z,80.03
2023-03-26T11:21:19.770Z,79.64
2023-03-26T11:23:36.419Z,80.80
2023-03-26T11:26:03.324Z,81.23
2023-03-26T11:28:06.459Z,77.26
2023-03-26T11:30:17.224Z,74.82
2023-03-26T11:32:26.486Z,68.88
2023-03-26T11:34:42.088Z,67.81
2023-03-26T11:36:52.589Z,68.11
2023-03-26T11:38:57.663Z,70.44
2023-03-26T11:41:04.929Z,69.38
2023-03-26T11:43:13.525Z,68.42
2023-03-26T11:45:24.281Z,68.59
2023-03-26T11:47:31.537Z,59.88
2023-03-26T11:49:34.061Z,53.69
2023-03-26T11:51:38.873Z,44.03
2023-03-26T11:53:47.101Z,39.28
2023-03-26T11:56:01.434Z,35.26
2023-03-26T11:58:06.193Z,33.42
2023-03-26T12:00:19.617Z,33.34
2023-03-26T12:02:29.501Z,32.37
2023-03-26T12:04:39.032Z,30.77
2023-03-26T12:06:59.763Z,30.78
2023-03-26T12:09:03.608Z,33.01
2023-03-26T12:11:10.411Z,37.52
2023-03-26T12:13:39.301Z,40.66
2023-03-26T12:15:44.326Z,42.97
2023-03-26T12:17:51.454Z,41.05
2023-03-26T12:19:54.114Z,41.76
2023-03-26T12:21:58.014Z,43.29
2023-03-26T12:24:05.680Z,43.78
2023-03-26T12:26:15.343Z,44.17
2023-03-26T12:28:19.803Z,40.94
2023-03-26T12:30:28.160Z,36.43
2023-03-26T12:34:40.074Z,34.58
2023-03-26T12:36:49.719Z,37.18
2023-03-26T12:39:16.928Z,40.59
2023-03-26T12:44:44.554Z,42.74
2023-03-26T12:44:54.654Z,41.18
2023-03-26T12:47:54.509Z,41.64
2023-03-26T12:48:56.952Z,43.79
2023-03-26T12:51:11.816Z,46.00
2023-03-26T12:53:39.647Z,41.54
2023-03-26T12:55:49.052Z,39.43
2023-03-26T12:58:13.204Z,40.13
2023-03-26T13:00:34.970Z,41.48
2023-03-26T13:03:05.814Z,41.64
2023-03-26T13:05:23.865Z,40.23
2023-03-26T13:07:39.984Z,39.32
2023-03-26T13:09:57.725Z,39.91
2023-03-26T13:12:20.424Z,39.55
2023-03-26T13:14:56.454Z,38.79
2023-03-26T13:17:11.466Z,38.68
2023-03-26T13:19:19.706Z,36.82
2023-03-26T13:21:51.729Z,36.36
2023-03-26T13:23:56.219Z,35.61
2023-03-26T13:26:20.005Z,36.36
2023-03-26T13:28:52.715Z,34.91
2023-03-26T13:31:22.321Z,35.43
2023-03-26T13:33:51.754Z,37.37
2023-03-26T13:36:22.600Z,37.34
2023-03-26T13:38:58.643Z,35.14
2023-03-26T13:41:15.163Z,33.61
2023-03-26T13:43:32.168Z,35.35
2023-03-26T13:45:54.335Z,35.78
2023-03-26T13:48:01.164Z,34.33
2023-03-26T13:50:25.196Z,34.29
2023-03-26T13:52:38.504Z,36.36
2023-03-26T13:55:03.177Z,37.52
2023-03-26T13:57:12.916Z,38.19
2023-03-26T13:59:46.141Z,38.16
2023-03-26T14:01:57.200Z,37.57
2023-03-26T14:04:04.804Z,37.22
2023-03-26T14:06:15.037Z,37.40
2023-03-26T14:08:25.294Z,37.63
2023-03-26T14:10:31.441Z,37.48
2023-03-26T14:12:55.524Z,35.60
2023-03-26T14:15:20.305Z,33.83
2023-03-26T14:17:31.235Z,33.53
2023-03-26T14:19:55.207Z,34.17
2023-03-26T14:22:31.730Z,34.66
2023-03-26T14:24:40.771Z,33.91
2023-03-26T14:27:03.433Z,33.13
2023-03-26T14:29:28.275Z,34.72
2023-03-26T14:31:38.325Z,35.31
2023-03-26T14:33:44.058Z,33.90
2023-03-26T14:36:05.761Z,33.27
2023-03-26T14:38:34.138Z,33.71
2023-03-26T14:40:58.862Z,34.41
2023-03-26T14:43:42.420Z,34.96
2023-03-26T14:46:11.284Z,34.91
2023-03-26T14:48:26.068Z,35.24
2023-03-26T14:50:36.425Z,32.68
2023-03-26T14:52:50.845Z,33.98
2023-03-26T14:54:58.075Z,33.72
2023-03-26T14:57:38.724Z,33.91
2023-03-26T14:59:51.714Z,33.99
2023-03-26T15:02:25.283Z,34.16
2023-03-26T15:04:47.621Z,33.67
2023-03-26T15:07:25.753Z,33.94
2023-03-26T15:09:50.554Z,34.25
2023-03-26T15:12:16.020Z,34.56
2023-03-26T15:14:41.284Z,34.60
2023-03-26T15:17:08.279Z,35.00
2023-03-26T15:19:26.000Z,35.31
2023-03-26T15:22:06.914Z,35.71
2023-03-26T15:24:37.822Z,36.08
2023-03-26T15:27:18.759Z,36.37
2023-03-26T15:29:49.663Z,36.81
2023-03-26T15:32:30.360Z,37.02
2023-03-26T15:34:52.103Z,37.43
2023-03-26T15:37:11.704Z,37.78
2023-03-26T15:39:59.949Z,38.02
2023-03-26T15:42:36.122Z,38.44
2023-03-26T15:44:55.250Z,38.31
2023-03-26T15:47:06.973Z,38.02
2023-03-26T15:49:17.092Z,38.29
2023-03-26T15:51:48.086Z,38.82
2023-03-26T15:54:23.823Z,39.18
2023-03-26T15:57:18.201Z,40.00
2023-03-26T15:59:23.105Z,40.71
2023-03-26T16:01:49.433Z,40.77
2023-03-26T16:04:21.506Z,40.49
2023-03-26T16:06:34.022Z,41.12
2023-03-26T16:08:38.834Z,41.16
2023-03-26T16:10:58.792Z,41.36
2023-03-26T16:13:17.592Z,41.57
2023-03-26T16:15:34.065Z,41.71
2023-03-26T16:18:05.435Z,42.02
2023-03-26T16:20:33.706Z,42.45
2023-03-26T16:22:46.129Z,42.96
2023-03-26T16:25:34.587Z,43.02
2023-03-26T16:27:38.718Z,43.15
2023-03-26T16:30:00.618Z,43.79
2023-03-26T16:32:10.534Z,44.46
2023-03-26T16:34:27.315Z,44.57
2023-03-26T16:36:36.543Z,44.83
2023-03-26T16:39:12.792Z,44.86
2023-03-26T16:41:21.118Z,44.00
2023-03-26T16:43:42.874Z,43.92
2023-03-26T16:46:13.740Z,43.73
2023-03-26T16:48:22.974Z,43.58
2023-03-26T16:50:46.976Z,43.70
2023-03-26T16:53:24.693Z,43.91
2023-03-26T16:55:51.863Z,44.06
2023-03-26T16:58:29.444Z,44.40
2023-03-26T17:01:16.042Z,44.34
2023-03-26T17:03:46.900Z,44.69
2023-03-26T17:06:29.548Z,45.09
2023-03-26T17:08:56.922Z,45.38
2023-03-26T17:11:21.361Z,45.62
2023-03-26T17:14:01.539Z,45.91
2023-03-26T17:16:12.361Z,46.21
2023-03-26T17:18:43.733Z,46.63
2023-03-26T17:21:05.993Z,46.98
2023-03-26T17:23:39.083Z,47.43
2023-03-26T17:25:57.540Z,47.69
2023-03-26T17:28:23.003Z,47.82
2023-03-26T17:30:41.628Z,48.15
2023-03-26T17:33:06.471Z,48.38
2023-03-26T17:35:09.922Z,48.11
2023-03-26T17:37:22.630Z,48.50
2023-03-26T17:39:41.338Z,48.51
2023-03-26T17:42:18.139Z,48.47
2023-03-26T17:44:42.275Z,48.27
2023-03-26T17:46:48.520Z,48.54
2023-03-26T17:49:04.844Z,48.22
2023-03-26T17:51:27.642Z,48.48
2023-03-26T17:53:34.339Z,48.43
2023-03-26T17:55:42.258Z,48.39
2023-03-26T17:57:50.672Z,48.29
2023-03-26T17:59:59.800Z,48.32
2023-03-26T18:02:07.454Z,48.64
2023-03-26T18:07:26.018Z,48.56
2023-03-26T18:09:57.884Z,48.80
2023-03-26T18:12:38.473Z,48.70
2023-03-26T18:15:04.075Z,49.09
2023-03-26T18:17:08.103Z,48.63
2023-03-26T18:19:20.586Z,48.75
2023-03-26T18:21:38.674Z,48.77
2023-03-26T18:23:48.186Z,48.79
2023-03-26T18:26:14.194Z,48.70
2023-03-26T18:28:18.404Z,48.68
2023-03-26T18:30:23.611Z,48.50
2023-03-26T18:32:34.976Z,48.69
2023-03-26T18:34:50.525Z,48.66
2023-03-26T18:37:15.501Z,48.68
2023-03-26T18:39:21.179Z,48.65
2023-03-26T18:41:31.800Z,48.71
2023-03-26T18:43:44.130Z,48.93
2023-03-26T18:45:54.892Z,49.09
2023-03-26T18:48:08.423Z,49.70
2023-03-26T18:50:17.883Z,49.44
2023-03-26T18:52:22.935Z,49.13
2023-03-26T18:54:32.515Z,49.26
2023-03-26T18:56:47.819Z,49.31
2023-03-26T18:58:58.291Z,49.61
2023-03-26T19:01:20.042Z,49.41
2023-03-26T19:03:32.769Z,49.24
2023-03-26T19:05:37.536Z,49.85
2023-03-26T19:07:46.399Z,50.00
2023-03-26T19:09:52.218Z,49.75
2023-03-26T19:11:58.615Z,49.97
2023-03-26T19:14:16.820Z,50.19
2023-03-26T19:16:34.500Z,51.39
2023-03-26T19:18:44.273Z,52.51
2023-03-26T19:20:52.091Z,53.94
2023-03-26T19:22:57.982Z,53.76
2023-03-26T19:25:05.729Z,53.76
2023-03-26T19:27:11.850Z,53.00
2023-03-26T19:29:24.864Z,53.13
2023-03-26T19:31:35.346Z,52.82
2023-03-26T19:33:42.601Z,53.56
2023-03-26T19:35:54.386Z,53.11
2023-03-26T19:37:57.626Z,53.26
2023-03-26T19:40:22.391Z,53.04
2023-03-26T19:42:43.743Z,54.37
2023-03-26T19:44:49.022Z,53.55
2023-03-26T19:47:01.779Z,53.65
2023-03-26T19:49:05.203Z,54.34
2023-03-26T19:51:23.674Z,54.40
2023-03-26T19:53:36.088Z,55.29
2023-03-26T19:55:45.960Z,55.25
2023-03-26T19:57:52.350Z,55.23
2023-03-26T19:59:57.506Z,55.09
2023-03-26T20:02:00.586Z,55.27
2023-03-26T20:04:07.216Z,55.48
2023-03-26T20:06:15.966Z,55.51
2023-03-26T20:08:20.315Z,55.80
2023-03-26T20:10:24.963Z,56.11
2023-03-26T20:12:28.405Z,56.17
2023-03-26T20:14:33.150Z,56.45
2023-03-26T20:16:38.907Z,56.33
2023-03-26T20:18:44.167Z,56.31
2023-03-26T20:20:47.182Z,56.79
2023-03-26T20:22:51.948Z,57.14
2023-03-26T20:25:00.808Z,57.13
2023-03-26T20:27:04.608Z,57.06
2023-03-26T20:29:08.511Z,56.77
2023-03-26T20:31:17.734Z,56.84
2023-03-26T20:33:27.087Z,57.03
2023-03-26T20:35:36.252Z,56.23
2023-03-26T20:37:39.872Z,56.47
2023-03-26T20:39:43.194Z,56.72
2023-03-26T20:41:48.795Z,56.93
2023-03-26T20:43:52.660Z,56.85
2023-03-26T20:45:56.189Z,56.83
2023-03-26T20:47:59.527Z,57.04
2023-03-26T20:50:02.331Z,56.54
2023-03-26T20:52:05.168Z,56.27
2023-03-26T20:54:22.229Z,56.45
2023-03-26T20:56:25.142Z,56.78
2023-03-26T20:58:31.033Z,57.15
2023-03-26T21:00:35.192Z,57.61
2023-03-26T21:02:37.738Z,57.89
2023-03-26T21:04:40.166Z,58.11
2023-03-26T21:06:43.574Z,58.29
2023-03-26T21:08:46.162Z,58.50
2023-03-26T21:10:48.916Z,58.72
2023-03-26T21:13:08.376Z,58.90
2023-03-26T21:15:20.843Z,59.16
2023-03-26T21:17:26.299Z,59.69
2023-03-26T21:19:29.245Z,60.29
2023-03-26T21:21:43.818Z,60.81
2023-03-26T21:23:59.345Z,60.63
2023-03-26T21:26:17.974Z,60.91
2023-03-26T21:28:39.405Z,61.60
2023-03-26T21:30:44.818Z,62.39
2023-03-26T21:32:47.952Z,63.69
2023-03-26T21:34:58.453Z,64.94
2023-03-26T21:37:02.352Z,65.90
2023-03-26T21:39:06.512Z,67.09
2023-03-26T21:41:31.152Z,68.97
2023-03-26T21:43:33.549Z,71.06
2023-03-26T21:45:36.685Z,73.57
2023-03-26T21:47:39.687Z,78.71
2023-03-26T21:49:42.244Z,90.27
2023-03-26T21:51:45.361Z,99.50
2023-03-26T21:53:48.932Z,100.00
2023-03-26T21:55:54.027Z,100.00
2023-03-26T21:58:05.823Z,100.00
2023-03-26T22:00:15.402Z,100.00
2023-03-26T22:02:33.680Z,100.00
2023-03-26T22:04:51.904Z,100.00
2023-03-26T22:07:26.103Z,100.00
2023-03-26T22:09:36.296Z,100.00
2023-03-26T22:11:41.555Z,100.00
2023-03-26T22:13:44.116Z,100.00
2023-03-26T22:15:46.826Z,100.00
2023-03-26T22:17:54.134Z,100.00
2023-03-26T22:19:56.853Z,100.00
2023-03-26T22:22:00.137Z,100.00
2023-03-26T22:24:04.171Z,100.00
2023-03-26T22:26:07.222Z,100.00
2023-03-26T22:28:10.090Z,100.00
2023-03-26T22:30:14.044Z,100.00
2023-03-26T22:32:16.468Z,100.00
2023-03-26T22:34:19.889Z,100.00
2023-03-26T22:36:23.749Z,100.00
2023-03-26T22:38:26.293Z,100.00
2023-03-26T22:40:29.061Z,100.00
2023-03-26T22:42:31.579Z,100.00
2023-03-26T22:44:33.982Z,100.00
2023-03-26T22:46:36.715Z,100.00
2023-03-26T22:48:40.787Z,100.00
2023-03-26T22:50:43.743Z,100.00
2023-03-26T22:52:46.382Z,100.00
2023-03-26T22:54:48.811Z,100.00
2023-03-26T22:56:52.439Z,100.00
2023-03-26T22:58:55.130Z,100.00
2023-03-26T23:01:08.292Z,100.00
2023-03-26T23:03:10.806Z,100.00
2023-03-26T23:05:14.524Z,100.00
2023-03-26T23:07:16.799Z,100.00
2023-03-26T23:09:19.753Z,100.00
2023-03-26T23:11:23.295Z,100.00
2023-03-26T23:13:26.089Z,100.00
2023-03-26T23:15:28.426Z,100.00
2023-03-26T23:17:36.134Z,100.00
2023-03-26T23:19:39.124Z,100.00
2023-03-26T23:21:41.524Z,100.00
2023-03-26T23:23:44.798Z,100.00
2023-03-26T23:25:47.712Z,100.00
2023-03-26T23:27:50.688Z,100.00
2023-03-26T23:29:53.425Z,100.00
2023-03-26T23:31:56.118Z,100.00
2023-03-26T23:33:58.635Z,100.00
2023-03-26T23:36:08.723Z,100.00
2023-03-26T23:38:13.058Z,100.00
2023-03-26T23:40:15.796Z,100.00
